createdAt,value
2022-12-24T00:01:32.638Z,9.68
2022-12-24T00:03:59.081Z,8.80
2022-12-24T00:06:25.449Z,9.02
2022-12-24T00:08:52.057Z,7.35
2022-12-24T00:11:19.184Z,6.38
2022-12-24T00:13:45.631Z,7.65
2022-12-24T00:16:12.021Z,6.45
2022-12-24T00:18:45.222Z,6.05
2022-12-24T00:21:12.210Z,5.82
2022-12-24T00:23:38.599Z,5.82
2022-12-24T00:26:05.112Z,5.60
2022-12-24T00:28:31.495Z,5.22
2022-12-24T00:30:57.957Z,5.03
2022-12-24T00:33:24.921Z,5.85
2022-12-24T00:35:52.603Z,5.07
2022-12-24T00:38:19.015Z,5.30
2022-12-24T00:40:45.402Z,5.35
2022-12-24T00:43:11.839Z,4.88
2022-12-24T00:45:38.215Z,4.57
2022-12-24T00:48:04.661Z,4.68
2022-12-24T00:50:31.045Z,4.45
2022-12-24T00:52:57.561Z,4.40
2022-12-24T00:55:23.917Z,4.85
2022-12-24T00:57:50.331Z,5.25
2022-12-24T01:00:17.828Z,4.50
2022-12-24T01:02:44.591Z,4.45
2022-12-24T01:05:11.679Z,4.57
2022-12-24T01:07:40.756Z,4.03
2022-12-24T01:10:08.155Z,4.25
2022-12-24T01:12:34.986Z,4.43
2022-12-24T01:15:01.455Z,4.57
2022-12-24T01:17:27.826Z,4.10
2022-12-24T01:19:54.193Z,4.22
2022-12-24T01:22:20.554Z,3.90
2022-12-24T01:24:46.929Z,4.13
2022-12-24T01:27:13.317Z,4.80
2022-12-24T01:29:39.890Z,3.75
2022-12-24T01:32:06.261Z,4.13
2022-12-24T01:34:32.788Z,4.50
2022-12-24T01:36:59.192Z,3.72
2022-12-24T01:39:25.607Z,3.50
2022-12-24T01:42:10.530Z,3.55
2022-12-24T01:44:41.836Z,3.80
2022-12-24T01:47:14.720Z,4.03
2022-12-24T01:49:52.867Z,3.80
2022-12-24T01:52:23.897Z,4.32
2022-12-24T01:54:53.246Z,4.47
2022-12-24T01:57:23.555Z,4.55
2022-12-24T01:59:54.664Z,4.22
2022-12-24T02:02:21.638Z,3.50
2022-12-24T02:04:57.094Z,4.07
2022-12-24T02:07:23.621Z,4.72
2022-12-24T02:09:52.114Z,5.38
2022-12-24T02:12:18.649Z,4.10
2022-12-24T02:14:45.123Z,4.70
2022-12-24T02:17:23.496Z,4.78
2022-12-24T02:20:25.025Z,5.28
2022-12-24T02:23:06.615Z,4.38
2022-12-24T02:25:44.040Z,4.95
2022-12-24T02:28:41.431Z,5.18
2022-12-24T02:31:18.789Z,4.93
2022-12-24T02:33:50.367Z,5.15
2022-12-24T02:36:33.338Z,4.18
2022-12-24T02:39:05.697Z,4.30
2022-12-24T02:41:53.763Z,4.95
2022-12-24T02:44:22.674Z,4.25
2022-12-24T02:46:50.029Z,5.35
2022-12-24T02:49:16.453Z,4.72
2022-12-24T02:51:42.852Z,4.72
2022-12-24T02:54:09.255Z,4.90
2022-12-24T02:56:54.330Z,4.70
2022-12-24T02:59:29.639Z,5.13
2022-12-24T03:02:24.180Z,5.10
2022-12-24T03:05:18.921Z,5.57
2022-12-24T03:07:56.026Z,6.20
2022-12-24T03:10:28.282Z,4.97
2022-12-24T03:13:07.870Z,6.93
2022-12-24T03:15:34.614Z,5.57
2022-12-24T03:18:02.474Z,5.47
2022-12-24T03:20:35.054Z,5.65
2022-12-24T03:23:01.539Z,5.53
2022-12-24T03:25:28.145Z,5.32
2022-12-24T03:27:56.649Z,5.15
2022-12-24T03:30:23.048Z,5.05
2022-12-24T03:32:49.452Z,4.30
2022-12-24T03:35:15.802Z,6.32
2022-12-24T03:37:42.190Z,5.18
2022-12-24T03:40:09.159Z,5.05
2022-12-24T03:42:35.607Z,5.35
2022-12-24T03:45:02.146Z,4.85
2022-12-24T03:47:28.508Z,5.07
2022-12-24T03:49:54.875Z,5.60
2022-12-24T03:52:21.368Z,5.70
2022-12-24T03:54:47.741Z,6.53
2022-12-24T03:57:14.300Z,5.40
2022-12-24T03:59:40.684Z,6.57
2022-12-24T04:02:07.274Z,6.07
2022-12-24T04:04:36.685Z,5.22
2022-12-24T04:07:04.216Z,5.70
2022-12-24T04:09:31.044Z,5.00
2022-12-24T04:11:57.546Z,5.35
2022-12-24T04:14:24.003Z,5.40
2022-12-24T04:16:50.440Z,5.88
2022-12-24T04:19:16.896Z,5.28
2022-12-24T04:21:43.289Z,6.22
2022-12-24T04:24:09.723Z,5.80
2022-12-24T04:26:36.129Z,6.90
2022-12-24T04:29:02.537Z,5.63
2022-12-24T04:31:29.014Z,6.18
2022-12-24T04:33:55.456Z,5.68
2022-12-24T04:36:22.042Z,6.15
2022-12-24T04:38:49.115Z,6.43
2022-12-24T04:41:24.290Z,5.95
2022-12-24T04:43:52.397Z,6.55
2022-12-24T04:46:24.581Z,5.63
2022-12-24T04:48:52.209Z,6.18
2022-12-24T04:51:19.032Z,6.95
2022-12-24T04:53:45.900Z,6.43
2022-12-24T04:56:14.966Z,7.00
2022-12-24T04:58:41.365Z,7.38
2022-12-24T05:01:10.002Z,7.43
2022-12-24T05:03:36.515Z,6.68
2022-12-24T05:06:08.562Z,7.00
2022-12-24T05:08:35.054Z,7.40
2022-12-24T05:11:03.411Z,7.03
2022-12-24T05:13:39.160Z,7.00
2022-12-24T05:16:11.797Z,6.90
2022-12-24T05:18:38.251Z,7.22
2022-12-24T05:21:13.734Z,7.45
2022-12-24T05:23:58.763Z,7.43
2022-12-24T05:26:31.648Z,6.95
2022-12-24T05:28:59.630Z,7.35
2022-12-24T05:31:27.377Z,7.80
2022-12-24T05:33:54.864Z,7.75
2022-12-24T05:36:22.052Z,7.82
2022-12-24T05:38:48.522Z,7.32
2022-12-24T05:41:14.919Z,6.88
2022-12-24T05:43:41.387Z,6.43
2022-12-24T05:46:12.988Z,6.63
2022-12-24T05:48:39.646Z,6.73
2022-12-24T05:51:08.008Z,6.15
2022-12-24T05:53:34.864Z,6.03
2022-12-24T05:56:06.242Z,5.93
2022-12-24T05:58:32.757Z,6.50
2022-12-24T06:01:01.098Z,6.40
2022-12-24T06:03:27.572Z,6.30
2022-12-24T06:06:04.867Z,6.93
2022-12-24T06:08:31.876Z,6.80
2022-12-24T06:11:00.303Z,6.03
2022-12-24T06:13:27.359Z,6.35
2022-12-24T06:16:01.644Z,6.72
2022-12-24T06:18:32.409Z,6.82
2022-12-24T06:20:59.532Z,6.57
2022-12-24T06:23:26.733Z,6.40
2022-12-24T06:25:56.404Z,6.95
2022-12-24T06:28:22.767Z,7.80
2022-12-24T06:30:50.513Z,6.97
2022-12-24T06:33:17.207Z,7.25
2022-12-24T06:35:45.437Z,6.20
2022-12-24T06:38:11.936Z,7.00
2022-12-24T06:40:38.827Z,6.82
2022-12-24T06:43:05.431Z,7.72
2022-12-24T06:45:32.103Z,7.68
2022-12-24T06:47:59.100Z,7.47
2022-12-24T06:50:25.505Z,6.95
2022-12-24T06:52:52.264Z,7.90
2022-12-24T06:55:18.748Z,6.78
2022-12-24T06:57:45.164Z,7.20
2022-12-24T07:00:12.555Z,7.60
2022-12-24T07:02:43.154Z,7.20
2022-12-24T07:05:11.948Z,9.07
2022-12-24T07:07:42.893Z,7.28
2022-12-24T07:10:14.640Z,7.72
2022-12-24T07:12:41.256Z,9.18
2022-12-24T07:15:08.300Z,8.75
2022-12-24T07:17:34.845Z,9.60
2022-12-24T07:20:01.316Z,10.18
2022-12-24T07:22:27.771Z,11.45
2022-12-24T07:24:54.188Z,10.57
2022-12-24T07:27:20.635Z,10.90
2022-12-24T07:29:47.585Z,11.48
2022-12-24T07:32:14.033Z,13.13
2022-12-24T07:34:40.425Z,11.70
2022-12-24T07:37:07.470Z,11.88
2022-12-24T07:39:33.834Z,11.75
2022-12-24T07:42:00.224Z,12.93
2022-12-24T07:44:26.681Z,13.27
2022-12-24T07:46:53.151Z,12.90
2022-12-24T07:49:19.893Z,13.07
2022-12-24T07:51:46.306Z,14.40
2022-12-24T07:54:12.710Z,13.27
2022-12-24T07:56:39.095Z,13.68
2022-12-24T07:59:05.497Z,13.38
2022-12-24T08:01:32.027Z,12.80
2022-12-24T08:03:58.557Z,11.70
2022-12-24T08:06:25.041Z,11.50
2022-12-24T08:08:51.457Z,12.48
2022-12-24T08:11:17.844Z,12.60
2022-12-24T08:13:44.845Z,12.40
2022-12-24T08:16:11.327Z,11.77
2022-12-24T08:18:37.766Z,12.13
2022-12-24T08:21:07.342Z,11.18
2022-12-24T08:23:33.770Z,12.82
2022-12-24T08:26:00.284Z,12.82
2022-12-24T08:28:26.791Z,11.57
2022-12-24T08:30:53.462Z,12.10
2022-12-24T08:33:20.417Z,11.93
2022-12-24T08:35:51.272Z,12.88
2022-12-24T08:38:17.746Z,13.02
2022-12-24T08:40:44.746Z,11.57
2022-12-24T08:43:11.136Z,12.88
2022-12-24T08:45:40.950Z,12.55
2022-12-24T08:48:08.634Z,12.82
2022-12-24T08:50:35.581Z,12.35
2022-12-24T08:53:02.064Z,12.32
2022-12-24T08:55:28.456Z,13.15
2022-12-24T08:57:54.875Z,13.55
2022-12-24T09:00:21.351Z,12.23
2022-12-24T09:02:47.971Z,12.65
2022-12-24T09:05:14.439Z,11.95
2022-12-24T09:07:40.824Z,12.68
2022-12-24T09:10:07.897Z,11.85
2022-12-24T09:12:34.440Z,11.88
2022-12-24T09:15:03.817Z,10.98
2022-12-24T09:17:30.819Z,11.63
2022-12-24T09:19:57.294Z,10.85
2022-12-24T09:22:23.752Z,10.70
2022-12-24T09:24:50.115Z,10.93
2022-12-24T09:27:16.572Z,10.90
2022-12-24T09:29:42.951Z,11.25
2022-12-24T09:32:09.469Z,10.48
2022-12-24T09:34:35.941Z,10.13
2022-12-24T09:37:03.083Z,10.10
2022-12-24T09:39:29.490Z,10.32
2022-12-24T09:42:05.012Z,10.00
2022-12-24T09:44:39.217Z,9.38
2022-12-24T09:47:15.733Z,8.88
2022-12-24T09:49:44.315Z,10.00
2022-12-24T09:52:14.477Z,9.05
2022-12-24T09:54:49.863Z,10.07
2022-12-24T09:57:38.471Z,9.40
2022-12-24T10:00:06.497Z,9.57
2022-12-24T10:02:33.328Z,9.55
2022-12-24T10:04:59.813Z,9.98
2022-12-24T10:07:35.171Z,9.52
2022-12-24T10:10:10.761Z,9.30
2022-12-24T10:12:49.805Z,9.43
2022-12-24T10:15:30.519Z,9.35
2022-12-24T10:18:09.000Z,9.00
2022-12-24T10:20:47.844Z,8.88
2022-12-24T10:23:35.129Z,9.38
2022-12-24T10:26:23.096Z,9.35
2022-12-24T10:29:09.133Z,9.35
2022-12-24T10:31:37.623Z,9.32
2022-12-24T10:34:13.796Z,9.27
2022-12-24T10:36:40.387Z,9.23
2022-12-24T10:39:17.321Z,10.35
2022-12-24T10:41:43.704Z,10.10
2022-12-24T10:44:16.678Z,11.82
2022-12-24T10:46:43.973Z,10.88
2022-12-24T10:49:19.405Z,11.35
2022-12-24T10:51:51.134Z,11.07
2022-12-24T10:54:26.463Z,11.10
2022-12-24T10:56:59.484Z,12.45
2022-12-24T10:59:31.737Z,10.88
2022-12-24T11:01:59.371Z,11.23
2022-12-24T11:04:28.721Z,11.40
2022-12-24T11:07:03.582Z,10.55
2022-12-24T11:09:36.450Z,9.82
2022-12-24T11:12:09.042Z,9.82
2022-12-24T11:14:37.884Z,9.15
2022-12-24T11:17:04.815Z,9.00
2022-12-24T11:19:32.850Z,9.00
2022-12-24T11:22:07.256Z,9.20
2022-12-24T11:24:35.065Z,10.45
2022-12-24T11:27:30.871Z,8.73
2022-12-24T11:30:15.499Z,8.85
2022-12-24T11:32:43.406Z,7.97
2022-12-24T11:35:23.855Z,9.07
2022-12-24T11:38:03.038Z,9.13
2022-12-24T11:40:37.705Z,8.75
2022-12-24T11:43:10.972Z,8.88
2022-12-24T11:45:48.744Z,9.27
2022-12-24T11:48:33.182Z,8.50
2022-12-24T11:51:02.314Z,8.45
2022-12-24T11:53:36.490Z,8.82
2022-12-24T11:56:08.796Z,8.90
2022-12-24T11:58:40.927Z,8.10
2022-12-24T12:01:26.666Z,7.95
2022-12-24T12:03:55.598Z,8.00
2022-12-24T12:06:32.734Z,8.52
2022-12-24T12:09:03.605Z,7.65
2022-12-24T12:11:30.610Z,8.02
2022-12-24T12:13:58.983Z,7.55
2022-12-24T12:17:03.575Z,7.90
2022-12-24T12:19:34.811Z,7.78
2022-12-24T12:22:04.169Z,8.27
2022-12-24T12:24:36.837Z,8.23
2022-12-24T12:27:10.667Z,8.05
2022-12-24T12:29:42.861Z,8.65
2022-12-24T12:32:16.384Z,8.68
2022-12-24T12:35:01.416Z,9.38
2022-12-24T12:37:32.816Z,8.18
2022-12-24T12:39:59.267Z,8.10
2022-12-24T12:42:35.112Z,7.93
2022-12-24T12:45:27.497Z,8.18
2022-12-24T12:48:12.406Z,7.45
2022-12-24T12:50:55.025Z,7.35
2022-12-24T12:53:29.924Z,7.88
2022-12-24T12:56:19.200Z,7.88
2022-12-24T12:59:12.263Z,7.00
2022-12-24T13:01:57.649Z,7.75
2022-12-24T13:05:05.651Z,7.55
2022-12-24T13:07:52.409Z,8.27
2022-12-24T13:10:28.651Z,7.88
2022-12-24T13:13:09.535Z,7.75
2022-12-24T13:15:57.223Z,8.32
2022-12-24T13:18:50.544Z,7.43
2022-12-24T13:21:20.242Z,8.02
2022-12-24T13:23:47.481Z,7.90
2022-12-24T13:26:14.705Z,7.40
2022-12-24T13:28:41.631Z,7.28
2022-12-24T13:31:17.137Z,7.60
2022-12-24T13:33:43.456Z,8.05
2022-12-24T13:36:16.461Z,6.97
2022-12-24T13:38:58.914Z,6.90
2022-12-24T13:41:41.853Z,6.38
2022-12-24T13:44:13.018Z,6.47
2022-12-24T13:46:59.641Z,7.85
2022-12-24T13:49:33.681Z,7.25
2022-12-24T13:52:12.240Z,6.47
2022-12-24T13:54:40.804Z,6.38
2022-12-24T13:57:29.811Z,7.35
2022-12-24T14:00:04.198Z,6.53
2022-12-24T14:02:36.084Z,6.15
2022-12-24T14:05:08.529Z,6.68
2022-12-24T14:07:36.089Z,6.43
2022-12-24T14:10:02.887Z,5.97
2022-12-24T14:12:55.727Z,6.18
2022-12-24T14:18:07.435Z,8.45
2022-12-24T14:20:33.897Z,6.68
2022-12-24T14:23:00.283Z,7.07
2022-12-24T14:25:27.018Z,7.00
2022-12-24T14:28:00.646Z,6.97
2022-12-24T14:30:28.890Z,7.60
2022-12-24T14:32:55.652Z,7.30
2022-12-24T14:35:25.955Z,8.85
2022-12-24T14:37:58.181Z,8.25
2022-12-24T14:40:29.604Z,7.53
2022-12-24T14:43:06.549Z,7.78
2022-12-24T14:45:43.252Z,7.70
2022-12-24T14:48:19.638Z,7.07
2022-12-24T14:51:01.952Z,7.25
2022-12-24T14:53:39.077Z,7.22
2022-12-24T14:56:19.784Z,6.80
2022-12-24T14:58:47.097Z,6.88
2022-12-24T15:01:25.630Z,6.88
2022-12-24T15:04:10.363Z,7.05
2022-12-24T15:06:42.128Z,7.45
2022-12-24T15:09:17.560Z,6.78
2022-12-24T15:11:45.068Z,6.63
2022-12-24T15:14:12.716Z,7.22
2022-12-24T15:16:39.571Z,7.20
2022-12-24T15:19:09.284Z,6.30
2022-12-24T15:21:43.894Z,7.00
2022-12-24T15:24:46.586Z,5.95
2022-12-24T15:27:25.055Z,6.40
2022-12-24T15:29:56.835Z,6.85
2022-12-24T15:32:23.254Z,7.30
2022-12-24T15:34:52.316Z,6.10
2022-12-24T15:37:37.390Z,5.65
2022-12-24T15:40:23.266Z,5.93
2022-12-24T15:42:49.939Z,7.35
2022-12-24T15:45:26.746Z,6.05
2022-12-24T15:47:57.136Z,6.30
2022-12-24T15:50:46.162Z,5.97
2022-12-24T15:53:22.008Z,5.60
2022-12-24T15:56:09.109Z,5.30
2022-12-24T15:58:43.342Z,5.65
2022-12-24T16:01:09.997Z,5.72
2022-12-24T16:03:38.733Z,5.82
2022-12-24T16:06:11.151Z,5.97
2022-12-24T16:08:40.013Z,5.38
2022-12-24T16:11:19.521Z,5.80
2022-12-24T16:13:49.036Z,5.47
2022-12-24T16:16:17.048Z,5.97
2022-12-24T16:18:55.316Z,6.13
2022-12-24T16:21:34.295Z,6.28
2022-12-24T16:24:15.989Z,6.13
2022-12-24T16:26:42.450Z,6.32
2022-12-24T16:29:10.410Z,6.10
2022-12-24T16:31:39.627Z,5.80
2022-12-24T16:34:06.124Z,6.28
2022-12-24T16:36:32.914Z,7.97
2022-12-24T16:39:17.938Z,8.63
2022-12-24T16:42:02.891Z,7.70
2022-12-24T16:44:29.276Z,8.07
2022-12-24T16:46:56.177Z,7.65
2022-12-24T16:49:23.253Z,7.70
2022-12-24T16:51:49.682Z,7.43
2022-12-24T16:54:16.043Z,8.30
2022-12-24T16:56:43.566Z,8.30
2022-12-24T16:59:21.031Z,8.80
2022-12-24T17:01:48.338Z,9.55
2022-12-24T17:04:15.302Z,10.35
2022-12-24T17:06:41.814Z,10.15
2022-12-24T17:09:09.358Z,10.20
2022-12-24T17:11:36.048Z,9.95
2022-12-24T17:14:08.160Z,9.82
2022-12-24T17:16:37.300Z,10.55
2022-12-24T17:19:04.176Z,10.43
2022-12-24T17:21:30.761Z,10.38
2022-12-24T17:23:57.306Z,10.43
2022-12-24T17:26:23.717Z,10.15
2022-12-24T17:28:54.321Z,10.02
2022-12-24T17:31:21.482Z,9.98
2022-12-24T17:33:52.085Z,11.05
2022-12-24T17:36:19.186Z,10.30
2022-12-24T17:38:45.569Z,9.95
2022-12-24T17:41:14.049Z,11.15
2022-12-24T17:43:40.772Z,11.63
2022-12-24T17:46:09.417Z,12.45
2022-12-24T17:48:36.436Z,12.57
2022-12-24T17:51:07.334Z,12.10
2022-12-24T17:53:34.991Z,10.27
2022-12-24T17:56:01.386Z,10.48
2022-12-24T17:58:28.555Z,10.90
2022-12-24T18:00:55.525Z,11.45
2022-12-24T18:03:22.280Z,10.23
2022-12-24T18:05:48.839Z,10.85
2022-12-24T18:08:15.253Z,11.32
2022-12-24T18:10:41.748Z,12.07
2022-12-24T18:13:11.427Z,11.35
2022-12-24T18:15:42.107Z,11.35
2022-12-24T18:18:09.735Z,11.02
2022-12-24T18:20:39.736Z,11.57
2022-12-24T18:23:09.382Z,11.48
2022-12-24T18:25:35.751Z,11.18
2022-12-24T18:28:02.162Z,11.93
2022-12-24T18:30:28.528Z,11.30
2022-12-24T18:32:54.959Z,11.38
2022-12-24T18:35:22.478Z,10.60
2022-12-24T18:37:48.876Z,10.88
2022-12-24T18:40:15.461Z,11.00
2022-12-24T18:42:42.200Z,11.07
2022-12-24T18:45:09.019Z,10.82
2022-12-24T18:47:35.418Z,11.65
2022-12-24T18:50:01.879Z,10.50
2022-12-24T18:52:32.142Z,11.65
2022-12-24T18:54:58.583Z,11.07
2022-12-24T18:57:25.149Z,11.38
2022-12-24T18:59:51.694Z,12.13
2022-12-24T19:02:18.307Z,11.80
2022-12-24T19:04:44.703Z,12.52
2022-12-24T19:07:11.096Z,12.57
2022-12-24T19:09:37.489Z,12.38
2022-12-24T19:12:04.315Z,11.43
2022-12-24T19:14:30.736Z,12.82
2022-12-24T19:16:57.238Z,12.23
2022-12-24T19:19:24.476Z,13.77
2022-12-24T19:21:51.584Z,13.20
2022-12-24T19:24:17.967Z,13.63
2022-12-24T19:26:44.352Z,13.35
2022-12-24T19:29:10.766Z,13.10
2022-12-24T19:31:37.159Z,14.18
2022-12-24T19:34:03.775Z,13.00
2022-12-24T19:36:30.750Z,13.65
2022-12-24T19:38:58.328Z,12.88
2022-12-24T19:41:27.276Z,12.38
2022-12-24T19:43:56.141Z,13.25
2022-12-24T19:46:25.066Z,15.40
2022-12-24T19:48:54.279Z,15.50
2022-12-24T19:51:21.218Z,15.48
2022-12-24T19:53:48.083Z,15.85
2022-12-24T19:56:16.084Z,15.18
2022-12-24T19:58:42.452Z,16.35
2022-12-24T20:01:15.817Z,15.73
2022-12-24T20:03:43.575Z,14.95
2022-12-24T20:06:10.051Z,16.13
2022-12-24T20:08:37.068Z,15.02
2022-12-24T20:11:06.487Z,16.30
2022-12-24T20:13:33.830Z,16.02
2022-12-24T20:16:05.642Z,17.70
2022-12-24T20:18:32.043Z,16.90
2022-12-24T20:21:03.130Z,16.45
2022-12-24T20:23:29.812Z,18.10
2022-12-24T20:25:58.698Z,17.27
2022-12-24T20:28:29.563Z,18.23
2022-12-24T20:30:56.239Z,17.17
2022-12-24T20:33:22.858Z,17.92
2022-12-24T20:35:49.281Z,17.73
2022-12-24T20:38:15.847Z,17.65
2022-12-24T20:40:43.439Z,17.75
2022-12-24T20:43:10.695Z,17.55
2022-12-24T20:45:38.178Z,17.17
2022-12-24T20:48:06.045Z,18.05
2022-12-24T20:50:32.657Z,17.80
2022-12-24T20:52:59.064Z,18.25
2022-12-24T20:55:25.525Z,16.58
2022-12-24T20:57:52.225Z,17.98
2022-12-24T21:00:19.794Z,16.80
2022-12-24T21:02:46.586Z,18.02
2022-12-24T21:05:13.239Z,17.20
2022-12-24T21:07:39.984Z,16.40
2022-12-24T21:10:07.742Z,15.40
2022-12-24T21:12:49.218Z,16.05
2022-12-24T21:15:20.031Z,17.13
2022-12-24T21:17:47.511Z,16.02
2022-12-24T21:20:15.108Z,15.68
2022-12-24T21:22:41.899Z,15.25
2022-12-24T21:25:08.661Z,15.57
2022-12-24T21:27:35.061Z,15.10
2022-12-24T21:30:01.623Z,15.60
2022-12-24T21:32:28.833Z,15.05
2022-12-24T21:34:55.230Z,15.10
2022-12-24T21:37:21.600Z,14.85
2022-12-24T21:39:48.024Z,15.23
2022-12-24T21:42:14.633Z,13.73
2022-12-24T21:44:41.072Z,15.00
2022-12-24T21:47:07.882Z,14.38
2022-12-24T21:49:52.882Z,14.38
2022-12-24T21:52:19.290Z,13.50
2022-12-24T21:54:45.687Z,12.75
2022-12-24T21:57:30.795Z,13.30
2022-12-24T22:00:18.338Z,13.50
2022-12-24T22:02:45.581Z,12.77
2022-12-24T22:05:12.136Z,12.50
2022-12-24T22:07:57.659Z,12.63
2022-12-24T22:10:42.926Z,12.55
2022-12-24T22:13:09.590Z,12.25
2022-12-24T22:15:39.200Z,12.18
2022-12-24T22:18:07.754Z,12.80
2022-12-24T22:20:35.444Z,12.63
2022-12-24T22:23:01.921Z,12.93
2022-12-24T22:25:29.762Z,11.73
2022-12-24T22:27:56.218Z,11.77
2022-12-24T22:30:22.664Z,11.35
2022-12-24T22:32:49.105Z,11.43
2022-12-24T22:35:15.691Z,11.23
2022-12-24T22:37:42.193Z,10.45
2022-12-24T22:40:09.188Z,11.00
2022-12-24T22:42:35.622Z,10.75
2022-12-24T22:45:02.432Z,11.18
2022-12-24T22:47:29.230Z,11.70
2022-12-24T22:49:55.643Z,10.57
2022-12-24T22:52:22.099Z,11.30
2022-12-24T22:54:48.580Z,10.98
2022-12-24T22:57:15.049Z,10.25
2022-12-24T22:59:41.454Z,10.23
2022-12-24T23:02:08.163Z,10.13
2022-12-24T23:04:36.318Z,8.40
2022-12-24T23:07:05.186Z,8.38
2022-12-24T23:09:31.650Z,9.43
2022-12-24T23:11:58.132Z,8.07
2022-12-24T23:14:42.889Z,9.20
2022-12-24T23:17:09.915Z,7.90
2022-12-24T23:19:36.881Z,8.20
2022-12-24T23:22:04.512Z,8.55
2022-12-24T23:24:32.274Z,8.68
2022-12-24T23:27:01.345Z,9.40
2022-12-24T23:29:28.970Z,8.60
2022-12-24T23:31:55.432Z,8.95
2022-12-24T23:34:21.836Z,8.73
2022-12-24T23:36:48.190Z,8.60
2022-12-24T23:39:14.596Z,9.57
2022-12-24T23:41:41.054Z,8.48
2022-12-24T23:44:07.635Z,9.20
2022-12-24T23:46:34.123Z,9.32
2022-12-24T23:49:00.529Z,8.45
2022-12-24T23:51:27.890Z,7.95
2022-12-24T23:53:55.703Z,8.82
2022-12-24T23:56:23.479Z,8.00
2022-12-24T23:58:50.059Z,7.45
